Jacobabad Weather



Jacobabad's Current Weather

Temprature 42.38o overcast clouds

overcast clouds

Rain: 0 %

Min Temprature42.38o
Max Temprature42.38o
Humidity24
Wind Speed5.61 m/h
Sun Rise05:43:40
Sun Set19:21:31
Current Time: 24-Jul-2021 16:01:34
Lat/Lon: 28.281, 68.4388




Jacobabad's Geo Location



Jacobabad's Weather Forecast

Time Overall Temp Min Temp Max Temp Humidity Wind Speed Rain
24-Jul-2021 (Sat)
17:00:00 overcast clouds 41.370 41.370 41.370 27 6.87 m/h 0 %
20:00:00 overcast clouds 40.570 38.960 40.570 29 5.34 m/h 0 %
23:00:00 broken clouds 38.460 37.010 38.460 33 4.98 m/h 0 %
25-Jul-2021 (Sun)
02:00:00 clear sky 35.400 35.400 35.400 39 1.96 m/h 0 %
05:00:00 few clouds 34.210 34.210 34.210 43 2.88 m/h 0 %
08:00:00 clear sky 36.760 36.760 36.760 40 3.21 m/h 0 %
11:00:00 clear sky 42.920 42.920 42.920 25 3.41 m/h 0 %
14:00:00 clear sky 46.190 46.190 46.190 18 2.71 m/h 0 %
17:00:00 scattered clouds 47.240 47.240 47.240 16 3.83 m/h 0 %
20:00:00 overcast clouds 42.240 42.240 42.240 24 6.73 m/h 0 %
23:00:00 broken clouds 38.630 38.630 38.630 37 7.47 m/h 0 %
26-Jul-2021 (Mon)
02:00:00 scattered clouds 35.160 35.160 35.160 48 5.95 m/h 0 %
05:00:00 scattered clouds 33.440 33.440 33.440 53 4.59 m/h 0 %
08:00:00 overcast clouds 34.890 34.890 34.890 49 3.67 m/h 0 %
11:00:00 overcast clouds 40.880 40.880 40.880 32 2.88 m/h 0 %
14:00:00 broken clouds 45.720 45.720 45.720 22 3.41 m/h 0 %
17:00:00 scattered clouds 46.320 46.320 46.320 20 6.7 m/h 0 %
20:00:00 scattered clouds 41.020 41.020 41.020 30 7.51 m/h 0 %
23:00:00 broken clouds 36.440 36.440 36.440 45 7.51 m/h 0 %
27-Jul-2021 (Tue)
02:00:00 overcast clouds 33.210 33.210 33.210 56 5.23 m/h 0 %
05:00:00 overcast clouds 31.720 31.720 31.720 63 4.99 m/h 0 %
08:00:00 broken clouds 33.140 33.140 33.140 57 4.3 m/h 0 %
11:00:00 overcast clouds 38.720 38.720 38.720 40 3.41 m/h 0 %
14:00:00 overcast clouds 43.610 43.610 43.610 29 4.22 m/h 0 %
17:00:00 overcast clouds 43.120 43.120 43.120 29 5.78 m/h 0 %
20:00:00 overcast clouds 37.950 37.950 37.950 41 8.32 m/h 0 %
23:00:00 overcast clouds 33.410 33.410 33.410 55 6.58 m/h 0 %
28-Jul-2021 (Wed)
02:00:00 overcast clouds 31.760 31.760 31.760 61 4.85 m/h 0 %
05:00:00 overcast clouds 30.690 30.690 30.690 65 4.58 m/h 0 %
08:00:00 scattered clouds 32.470 32.470 32.470 58 4.3 m/h 0 %
11:00:00 scattered clouds 38.550 38.550 38.550 39 3.52 m/h 0 %
14:00:00 overcast clouds 43.030 43.030 43.030 30 3.41 m/h 0 %
17:00:00 broken clouds 44.700 44.700 44.700 25 5.12 m/h 0 %
20:00:00 overcast clouds 40.370 40.370 40.370 33 7.57 m/h 0 %
23:00:00 light rain 34.430 34.430 34.430 52 6.59 m/h 55 %
29-Jul-2021 (Thu)
02:00:00 light rain 33.070 33.070 33.070 57 4.91 m/h 74 %
05:00:00 overcast clouds 31.540 31.540 31.540 62 3.63 m/h 0 %
08:00:00 broken clouds 33.070 33.070 33.070 57 3.64 m/h 0 %
11:00:00 overcast clouds 38.600 38.600 38.600 39 3.56 m/h 0 %
14:00:00 broken clouds 42.580 42.580 42.580 30 3.79 m/h 0 %

Famous Cities (60)